sensor_id;sensor_type;location;lat;lon;timestamp;P1;durP1;ratioP1;P2;durP2;ratioP2
16393;SDS011;8306;51.128;4.476;2022-09-11T00:01:41;16.67;;;15.30;;
16393;SDS011;8306;51.128;4.476;2022-09-11T00:04:08;15.90;;;14.50;;
16393;SDS011;8306;51.128;4.476;2022-09-11T00:06:34;15.50;;;14.40;;
16393;SDS011;8306;51.128;4.476;2022-09-11T00:09:01;14.60;;;13.50;;
16393;SDS011;8306;51.128;4.476;2022-09-11T00:11:28;16.00;;;14.80;;
16393;SDS011;8306;51.128;4.476;2022-09-11T00:13:53;14.53;;;13.53;;
16393;SDS011;8306;51.128;4.476;2022-09-11T00:16:21;14.47;;;13.47;;
16393;SDS011;8306;51.128;4.476;2022-09-11T00:18:49;14.67;;;13.57;;
16393;SDS011;8306;51.128;4.476;2022-09-11T00:21:16;16.10;;;14.80;;
16393;SDS011;8306;51.128;4.476;2022-09-11T00:23:42;17.80;;;16.13;;
16393;SDS011;8306;51.128;4.476;2022-09-11T00:26:08;15.50;;;14.40;;
16393;SDS011;8306;51.128;4.476;2022-09-11T00:28:35;17.27;;;15.87;;
16393;SDS011;8306;51.128;4.476;2022-09-11T00:31:03;17.73;;;15.97;;
16393;SDS011;8306;51.128;4.476;2022-09-11T00:33:34;15.13;;;14.13;;
16393;SDS011;8306;51.128;4.476;2022-09-11T00:36:02;15.30;;;14.20;;
16393;SDS011;8306;51.128;4.476;2022-09-11T00:38:28;18.60;;;16.93;;
16393;SDS011;8306;51.128;4.476;2022-09-11T00:40:54;17.20;;;15.83;;
16393;SDS011;8306;51.128;4.476;2022-09-11T00:43:20;17.07;;;15.57;;
16393;SDS011;8306;51.128;4.476;2022-09-11T00:45:51;15.60;;;14.57;;
16393;SDS011;8306;51.128;4.476;2022-09-11T00:48:13;16.47;;;15.33;;
16393;SDS011;8306;51.128;4.476;2022-09-11T00:50:40;18.27;;;16.97;;
16393;SDS011;8306;51.128;4.476;2022-09-11T00:53:06;17.37;;;16.13;;
16393;SDS011;8306;51.128;4.476;2022-09-11T00:55:32;20.13;;;18.53;;
16393;SDS011;8306;51.128;4.476;2022-09-11T00:58:00;14.20;;;13.20;;
16393;SDS011;8306;51.128;4.476;2022-09-11T01:00:25;15.43;;;14.23;;
16393;SDS011;8306;51.128;4.476;2022-09-11T01:02:52;17.00;;;15.80;;
16393;SDS011;8306;51.128;4.476;2022-09-11T01:05:18;19.47;;;17.87;;
16393;SDS011;8306;51.128;4.476;2022-09-11T01:07:45;18.73;;;17.07;;
16393;SDS011;8306;51.128;4.476;2022-09-11T01:10:11;16.23;;;15.03;;
16393;SDS011;8306;51.128;4.476;2022-09-11T01:12:41;16.90;;;15.63;;
16393;SDS011;8306;51.128;4.476;2022-09-11T01:20:21;19.17;;;17.43;;
16393;SDS011;8306;51.128;4.476;2022-09-11T01:23:14;15.97;;;14.97;;
16393;SDS011;8306;51.128;4.476;2022-09-11T01:25:46;16.80;;;15.60;;
16393;SDS011;8306;51.128;4.476;2022-09-11T01:28:22;15.67;;;14.67;;
16393;SDS011;8306;51.128;4.476;2022-09-11T01:30:49;16.63;;;15.43;;
16393;SDS011;8306;51.128;4.476;2022-09-11T01:33:23;17.30;;;16.00;;
16393;SDS011;8306;51.128;4.476;2022-09-11T01:36:06;18.03;;;16.57;;
16393;SDS011;8306;51.128;4.476;2022-09-11T01:38:36;18.70;;;17.20;;
16393;SDS011;8306;51.128;4.476;2022-09-11T01:41:05;16.50;;;15.20;;
16393;SDS011;8306;51.128;4.476;2022-09-11T01:43:34;15.63;;;14.60;;
16393;SDS011;8306;51.128;4.476;2022-09-11T01:46:00;16.57;;;15.27;;
16393;SDS011;8306;51.128;4.476;2022-09-11T01:48:28;17.33;;;16.17;;
16393;SDS011;8306;51.128;4.476;2022-09-11T01:50:52;16.80;;;15.57;;
16393;SDS011;8306;51.128;4.476;2022-09-11T01:53:19;18.47;;;16.73;;
16393;SDS011;8306;51.128;4.476;2022-09-11T01:55:47;16.10;;;15.03;;
16393;SDS011;8306;51.128;4.476;2022-09-11T01:58:13;16.40;;;15.30;;
16393;SDS011;8306;51.128;4.476;2022-09-11T02:00:38;18.20;;;16.90;;
16393;SDS011;8306;51.128;4.476;2022-09-11T02:03:06;16.30;;;15.20;;
16393;SDS011;8306;51.128;4.476;2022-09-11T02:05:37;17.50;;;16.10;;
16393;SDS011;8306;51.128;4.476;2022-09-11T02:08:01;16.67;;;15.50;;
16393;SDS011;8306;51.128;4.476;2022-09-11T02:10:31;17.10;;;15.90;;
16393;SDS011;8306;51.128;4.476;2022-09-11T02:12:57;18.00;;;16.73;;
16393;SDS011;8306;51.128;4.476;2022-09-11T02:15:23;18.23;;;16.73;;
16393;SDS011;8306;51.128;4.476;2022-09-11T02:17:59;17.90;;;16.23;;
16393;SDS011;8306;51.128;4.476;2022-09-11T02:20:24;15.87;;;14.77;;
16393;SDS011;8306;51.128;4.476;2022-09-11T02:22:51;17.10;;;15.87;;
16393;SDS011;8306;51.128;4.476;2022-09-11T02:25:17;18.27;;;16.77;;
16393;SDS011;8306;51.128;4.476;2022-09-11T02:27:44;17.43;;;16.03;;
16393;SDS011;8306;51.128;4.476;2022-09-11T02:30:10;16.63;;;15.43;;
16393;SDS011;8306;51.128;4.476;2022-09-11T02:32:37;18.73;;;17.23;;
16393;SDS011;8306;51.128;4.476;2022-09-11T02:35:03;19.43;;;17.87;;
16393;SDS011;8306;51.128;4.476;2022-09-11T02:37:45;24.10;;;19.87;;
16393;SDS011;8306;51.128;4.476;2022-09-11T02:43:22;36.67;;;21.00;;
16393;SDS011;8306;51.128;4.476;2022-09-11T02:45:56;18.00;;;16.80;;
16393;SDS011;8306;51.128;4.476;2022-09-11T02:53:12;20.67;;;18.97;;
16393;SDS011;8306;51.128;4.476;2022-09-11T02:58:46;19.90;;;18.40;;
16393;SDS011;8306;51.128;4.476;2022-09-11T03:01:18;20.73;;;19.07;;
16393;SDS011;8306;51.128;4.476;2022-09-11T03:03:45;21.00;;;19.40;;
16393;SDS011;8306;51.128;4.476;2022-09-11T03:06:15;23.30;;;21.07;;
16393;SDS011;8306;51.128;4.476;2022-09-11T03:08:40;20.57;;;18.93;;
16393;SDS011;8306;51.128;4.476;2022-09-11T03:11:07;19.80;;;18.50;;
16393;SDS011;8306;51.128;4.476;2022-09-11T03:13:34;19.57;;;18.27;;
16393;SDS011;8306;51.128;4.476;2022-09-11T03:16:00;20.00;;;18.60;;
16393;SDS011;8306;51.128;4.476;2022-09-11T03:18:26;22.47;;;20.67;;
16393;SDS011;8306;51.128;4.476;2022-09-11T03:20:53;26.83;;;24.03;;
16393;SDS011;8306;51.128;4.476;2022-09-11T03:23:19;19.87;;;18.03;;
16393;SDS011;8306;51.128;4.476;2022-09-11T03:25:46;20.97;;;19.13;;
16393;SDS011;8306;51.128;4.476;2022-09-11T03:28:12;20.37;;;18.70;;
16393;SDS011;8306;51.128;4.476;2022-09-11T03:30:39;16.93;;;15.93;;
16393;SDS011;8306;51.128;4.476;2022-09-11T03:33:06;18.47;;;17.13;;
16393;SDS011;8306;51.128;4.476;2022-09-11T03:35:32;20.20;;;18.60;;
16393;SDS011;8306;51.128;4.476;2022-09-11T03:37:58;20.30;;;18.53;;
16393;SDS011;8306;51.128;4.476;2022-09-11T03:40:25;18.77;;;17.47;;
16393;SDS011;8306;51.128;4.476;2022-09-11T03:42:51;17.50;;;16.37;;
16393;SDS011;8306;51.128;4.476;2022-09-11T03:45:18;16.07;;;15.07;;
16393;SDS011;8306;51.128;4.476;2022-09-11T03:47:44;39.10;;;21.07;;
16393;SDS011;8306;51.128;4.476;2022-09-11T03:50:11;34.67;;;18.07;;
16393;SDS011;8306;51.128;4.476;2022-09-11T03:52:37;16.97;;;15.57;;
16393;SDS011;8306;51.128;4.476;2022-09-11T03:55:04;17.03;;;15.73;;
16393;SDS011;8306;51.128;4.476;2022-09-11T03:57:34;16.67;;;15.57;;
16393;SDS011;8306;51.128;4.476;2022-09-11T03:59:59;16.57;;;15.10;;
16393;SDS011;8306;51.128;4.476;2022-09-11T04:02:26;16.80;;;15.60;;
16393;SDS011;8306;51.128;4.476;2022-09-11T04:04:52;13.87;;;13.07;;
16393;SDS011;8306;51.128;4.476;2022-09-11T04:07:19;17.33;;;15.97;;
16393;SDS011;8306;51.128;4.476;2022-09-11T04:09:45;16.57;;;15.37;;
16393;SDS011;8306;51.128;4.476;2022-09-11T04:12:11;16.10;;;15.00;;
16393;SDS011;8306;51.128;4.476;2022-09-11T04:14:38;17.13;;;15.80;;
16393;SDS011;8306;51.128;4.476;2022-09-11T04:17:04;15.23;;;14.33;;
16393;SDS011;8306;51.128;4.476;2022-09-11T04:19:31;14.03;;;13.23;;
16393;SDS011;8306;51.128;4.476;2022-09-11T04:21:57;14.70;;;13.70;;
16393;SDS011;8306;51.128;4.476;2022-09-11T04:24:24;13.73;;;12.93;;
16393;SDS011;8306;51.128;4.476;2022-09-11T04:26:50;14.77;;;13.87;;
16393;SDS011;8306;51.128;4.476;2022-09-11T04:29:17;72.70;;;16.50;;
16393;SDS011;8306;51.128;4.476;2022-09-11T04:31:43;15.23;;;14.10;;
16393;SDS011;8306;51.128;4.476;2022-09-11T04:34:10;14.00;;;13.20;;
16393;SDS011;8306;51.128;4.476;2022-09-11T04:36:36;16.50;;;15.13;;
16393;SDS011;8306;51.128;4.476;2022-09-11T04:39:03;16.77;;;13.20;;
16393;SDS011;8306;51.128;4.476;2022-09-11T04:41:29;12.27;;;11.57;;
16393;SDS011;8306;51.128;4.476;2022-09-11T04:43:56;11.47;;;10.87;;
16393;SDS011;8306;51.128;4.476;2022-09-11T04:46:22;14.83;;;13.93;;
16393;SDS011;8306;51.128;4.476;2022-09-11T04:48:50;12.60;;;11.90;;
16393;SDS011;8306;51.128;4.476;2022-09-11T04:51:18;12.97;;;12.10;;
16393;SDS011;8306;51.128;4.476;2022-09-11T04:53:45;12.33;;;11.43;;
16393;SDS011;8306;51.128;4.476;2022-09-11T04:56:11;11.40;;;10.80;;
16393;SDS011;8306;51.128;4.476;2022-09-11T04:58:38;12.60;;;11.77;;
16393;SDS011;8306;51.128;4.476;2022-09-11T05:01:05;13.00;;;12.30;;
16393;SDS011;8306;51.128;4.476;2022-09-11T05:03:31;12.60;;;11.90;;
16393;SDS011;8306;51.128;4.476;2022-09-11T05:05:57;13.50;;;12.80;;
16393;SDS011;8306;51.128;4.476;2022-09-11T05:08:24;14.33;;;13.43;;
16393;SDS011;8306;51.128;4.476;2022-09-11T05:10:50;17.17;;;15.43;;
16393;SDS011;8306;51.128;4.476;2022-09-11T05:13:17;14.23;;;13.43;;
16393;SDS011;8306;51.128;4.476;2022-09-11T05:15:43;14.97;;;13.97;;
16393;SDS011;8306;51.128;4.476;2022-09-11T05:18:10;15.60;;;14.57;;
16393;SDS011;8306;51.128;4.476;2022-09-11T05:20:36;14.23;;;13.43;;
16393;SDS011;8306;51.128;4.476;2022-09-11T05:23:03;15.37;;;14.37;;
16393;SDS011;8306;51.128;4.476;2022-09-11T05:25:29;14.07;;;13.30;;
16393;SDS011;8306;51.128;4.476;2022-09-11T05:27:56;14.27;;;13.47;;
16393;SDS011;8306;51.128;4.476;2022-09-11T05:30:22;17.43;;;16.07;;
16393;SDS011;8306;51.128;4.476;2022-09-11T05:32:52;17.93;;;16.80;;
16393;SDS011;8306;51.128;4.476;2022-09-11T05:35:18;14.77;;;13.97;;
16393;SDS011;8306;51.128;4.476;2022-09-11T05:37:44;14.30;;;13.47;;
16393;SDS011;8306;51.128;4.476;2022-09-11T05:40:11;13.40;;;12.70;;
16393;SDS011;8306;51.128;4.476;2022-09-11T05:42:37;14.33;;;13.53;;
16393;SDS011;8306;51.128;4.476;2022-09-11T05:45:04;13.47;;;12.67;;
16393;SDS011;8306;51.128;4.476;2022-09-11T05:47:30;17.80;;;16.17;;
16393;SDS011;8306;51.128;4.476;2022-09-11T05:49:57;17.37;;;16.10;;
16393;SDS011;8306;51.128;4.476;2022-09-11T05:52:23;15.80;;;14.90;;
16393;SDS011;8306;51.128;4.476;2022-09-11T05:54:50;18.43;;;16.90;;
16393;SDS011;8306;51.128;4.476;2022-09-11T05:57:16;15.80;;;14.80;;
16393;SDS011;8306;51.128;4.476;2022-09-11T05:59:43;21.87;;;18.17;;
16393;SDS011;8306;51.128;4.476;2022-09-11T06:02:09;16.47;;;15.57;;
16393;SDS011;8306;51.128;4.476;2022-09-11T06:04:36;14.60;;;13.70;;
16393;SDS011;8306;51.128;4.476;2022-09-11T06:07:02;14.57;;;13.77;;
16393;SDS011;8306;51.128;4.476;2022-09-11T06:09:29;19.33;;;17.50;;
16393;SDS011;8306;51.128;4.476;2022-09-11T06:11:56;36.10;;;19.60;;
16393;SDS011;8306;51.128;4.476;2022-09-11T06:14:22;17.13;;;16.03;;
16393;SDS011;8306;51.128;4.476;2022-09-11T06:16:48;16.83;;;15.73;;
16393;SDS011;8306;51.128;4.476;2022-09-11T06:19:15;18.57;;;17.27;;
16393;SDS011;8306;51.128;4.476;2022-09-11T06:21:41;15.87;;;14.97;;
16393;SDS011;8306;51.128;4.476;2022-09-11T06:24:08;17.83;;;16.73;;
16393;SDS011;8306;51.128;4.476;2022-09-11T06:26:34;19.23;;;17.93;;
16393;SDS011;8306;51.128;4.476;2022-09-11T06:29:01;18.73;;;17.43;;
16393;SDS011;8306;51.128;4.476;2022-09-11T06:31:27;20.00;;;17.60;;
16393;SDS011;8306;51.128;4.476;2022-09-11T06:33:54;23.17;;;18.57;;
16393;SDS011;8306;51.128;4.476;2022-09-11T06:36:21;19.43;;;18.13;;
16393;SDS011;8306;51.128;4.476;2022-09-11T06:38:50;18.43;;;17.13;;
16393;SDS011;8306;51.128;4.476;2022-09-11T06:41:14;17.33;;;16.13;;
16393;SDS011;8306;51.128;4.476;2022-09-11T06:43:40;19.17;;;17.63;;
16393;SDS011;8306;51.128;4.476;2022-09-11T06:46:07;50.37;;;20.33;;
16393;SDS011;8306;51.128;4.476;2022-09-11T06:48:33;60.93;;;20.43;;
16393;SDS011;8306;51.128;4.476;2022-09-11T06:51:02;20.43;;;18.50;;
16393;SDS011;8306;51.128;4.476;2022-09-11T06:53:28;24.10;;;17.47;;
16393;SDS011;8306;51.128;4.476;2022-09-11T06:56:01;19.40;;;18.03;;
16393;SDS011;8306;51.128;4.476;2022-09-11T06:58:27;19.67;;;17.83;;
16393;SDS011;8306;51.128;4.476;2022-09-11T07:01:06;93.07;;;27.23;;
16393;SDS011;8306;51.128;4.476;2022-09-11T07:03:32;36.60;;;21.97;;
16393;SDS011;8306;51.128;4.476;2022-09-11T07:05:59;21.43;;;19.83;;
16393;SDS011;8306;51.128;4.476;2022-09-11T07:08:25;43.60;;;21.97;;
16393;SDS011;8306;51.128;4.476;2022-09-11T07:10:51;48.10;;;24.23;;
16393;SDS011;8306;51.128;4.476;2022-09-11T07:13:18;24.17;;;20.50;;
16393;SDS011;8306;51.128;4.476;2022-09-11T07:15:44;21.03;;;19.63;;
16393;SDS011;8306;51.128;4.476;2022-09-11T07:18:11;71.20;;;24.90;;
16393;SDS011;8306;51.128;4.476;2022-09-11T07:20:38;40.33;;;21.63;;
16393;SDS011;8306;51.128;4.476;2022-09-11T07:23:04;82.33;;;25.47;;
16393;SDS011;8306;51.128;4.476;2022-09-11T07:25:30;24.80;;;22.37;;
16393;SDS011;8306;51.128;4.476;2022-09-11T07:27:57;63.63;;;24.37;;
16393;SDS011;8306;51.128;4.476;2022-09-11T07:30:23;24.57;;;22.57;;
16393;SDS011;8306;51.128;4.476;2022-09-11T07:32:50;23.77;;;21.97;;
16393;SDS011;8306;51.128;4.476;2022-09-11T07:35:16;31.27;;;28.10;;
16393;SDS011;8306;51.128;4.476;2022-09-11T07:37:43;45.17;;;28.40;;
16393;SDS011;8306;51.128;4.476;2022-09-11T07:40:09;59.00;;;29.17;;
16393;SDS011;8306;51.128;4.476;2022-09-11T07:42:36;37.60;;;28.27;;
16393;SDS011;8306;51.128;4.476;2022-09-11T07:45:02;67.00;;;31.73;;
16393;SDS011;8306;51.128;4.476;2022-09-11T07:47:29;40.03;;;30.93;;
16393;SDS011;8306;51.128;4.476;2022-09-11T07:49:55;57.13;;;30.63;;
16393;SDS011;8306;51.128;4.476;2022-09-11T07:52:22;109.13;;;36.67;;
16393;SDS011;8306;51.128;4.476;2022-09-11T07:54:48;47.40;;;29.47;;
16393;SDS011;8306;51.128;4.476;2022-09-11T07:57:14;52.50;;;30.50;;
16393;SDS011;8306;51.128;4.476;2022-09-11T07:59:41;76.90;;;31.40;;
16393;SDS011;8306;51.128;4.476;2022-09-11T08:02:08;36.57;;;29.30;;
16393;SDS011;8306;51.128;4.476;2022-09-11T08:04:34;39.27;;;29.07;;
16393;SDS011;8306;51.128;4.476;2022-09-11T08:07:00;71.10;;;33.27;;
16393;SDS011;8306;51.128;4.476;2022-09-11T08:09:27;52.50;;;31.03;;
16393;SDS011;8306;51.128;4.476;2022-09-11T08:11:53;62.50;;;31.03;;
16393;SDS011;8306;51.128;4.476;2022-09-11T08:14:20;81.37;;;33.03;;
16393;SDS011;8306;51.128;4.476;2022-09-11T08:16:46;73.27;;;31.77;;
16393;SDS011;8306;51.128;4.476;2022-09-11T08:19:16;41.17;;;29.80;;
16393;SDS011;8306;51.128;4.476;2022-09-11T08:21:42;34.13;;;29.07;;
16393;SDS011;8306;51.128;4.476;2022-09-11T08:24:10;53.40;;;28.93;;
16393;SDS011;8306;51.128;4.476;2022-09-11T08:26:37;34.93;;;28.73;;
16393;SDS011;8306;51.128;4.476;2022-09-11T08:29:04;36.67;;;30.40;;
16393;SDS011;8306;51.128;4.476;2022-09-11T08:31:31;35.70;;;27.90;;
16393;SDS011;8306;51.128;4.476;2022-09-11T08:33:57;32.67;;;27.70;;
16393;SDS011;8306;51.128;4.476;2022-09-11T08:36:23;33.83;;;28.83;;
16393;SDS011;8306;51.128;4.476;2022-09-11T08:38:50;28.90;;;26.10;;
16393;SDS011;8306;51.128;4.476;2022-09-11T08:43:50;37.67;;;28.50;;
16393;SDS011;8306;51.128;4.476;2022-09-11T08:46:19;30.37;;;27.20;;
16393;SDS011;8306;51.128;4.476;2022-09-11T08:51:26;28.73;;;26.30;;
16393;SDS011;8306;51.128;4.476;2022-09-11T08:53:53;28.50;;;25.80;;
16393;SDS011;8306;51.128;4.476;2022-09-11T08:56:20;29.10;;;26.43;;
16393;SDS011;8306;51.128;4.476;2022-09-11T08:58:54;31.00;;;28.13;;
16393;SDS011;8306;51.128;4.476;2022-09-11T09:04:20;37.27;;;31.53;;
16393;SDS011;8306;51.128;4.476;2022-09-11T09:06:56;34.67;;;30.73;;
16393;SDS011;8306;51.128;4.476;2022-09-11T09:09:32;33.53;;;29.20;;
16393;SDS011;8306;51.128;4.476;2022-09-11T09:17:28;38.80;;;32.80;;
16393;SDS011;8306;51.128;4.476;2022-09-11T09:20:08;42.30;;;33.17;;
16393;SDS011;8306;51.128;4.476;2022-09-11T09:22:44;44.87;;;33.07;;
16393;SDS011;8306;51.128;4.476;2022-09-11T09:25:13;37.50;;;31.93;;
16393;SDS011;8306;51.128;4.476;2022-09-11T09:27:44;33.80;;;29.23;;
16393;SDS011;8306;51.128;4.476;2022-09-11T09:30:20;35.03;;;31.13;;
16393;SDS011;8306;51.128;4.476;2022-09-11T09:32:54;32.03;;;28.73;;
16393;SDS011;8306;51.128;4.476;2022-09-11T09:35:20;33.23;;;29.97;;
16393;SDS011;8306;51.128;4.476;2022-09-11T09:37:44;33.07;;;29.43;;
16393;SDS011;8306;51.128;4.476;2022-09-11T09:40:14;31.10;;;28.13;;
16393;SDS011;8306;51.128;4.476;2022-09-11T09:45:37;27.83;;;25.57;;
16393;SDS011;8306;51.128;4.476;2022-09-11T09:48:12;25.57;;;23.57;;
16393;SDS011;8306;51.128;4.476;2022-09-11T09:50:39;30.00;;;27.47;;
16393;SDS011;8306;51.128;4.476;2022-09-11T09:55:50;26.03;;;24.00;;
16393;SDS011;8306;51.128;4.476;2022-09-11T09:58:17;28.70;;;26.17;;
16393;SDS011;8306;51.128;4.476;2022-09-11T10:00:43;27.97;;;25.80;;
16393;SDS011;8306;51.128;4.476;2022-09-11T10:03:20;23.53;;;21.73;;
16393;SDS011;8306;51.128;4.476;2022-09-11T10:05:45;27.30;;;25.20;;
16393;SDS011;8306;51.128;4.476;2022-09-11T10:10:54;26.67;;;24.53;;
16393;SDS011;8306;51.128;4.476;2022-09-11T10:13:19;26.10;;;24.17;;
16393;SDS011;8306;51.128;4.476;2022-09-11T10:15:49;29.47;;;27.07;;
16393;SDS011;8306;51.128;4.476;2022-09-11T10:20:47;24.53;;;22.83;;
16393;SDS011;8306;51.128;4.476;2022-09-11T10:23:21;25.30;;;23.30;;
16393;SDS011;8306;51.128;4.476;2022-09-11T10:25:49;26.33;;;24.37;;
16393;SDS011;8306;51.128;4.476;2022-09-11T10:28:15;24.00;;;22.30;;
16393;SDS011;8306;51.128;4.476;2022-09-11T10:33:19;27.00;;;24.73;;
16393;SDS011;8306;51.128;4.476;2022-09-11T10:35:50;24.37;;;22.57;;
16393;SDS011;8306;51.128;4.476;2022-09-11T10:38:22;22.40;;;20.90;;
16393;SDS011;8306;51.128;4.476;2022-09-11T10:40:54;25.67;;;23.77;;
16393;SDS011;8306;51.128;4.476;2022-09-11T10:43:24;21.50;;;20.00;;
16393;SDS011;8306;51.128;4.476;2022-09-11T10:46:22;19.97;;;18.67;;
16393;SDS011;8306;51.128;4.476;2022-09-11T10:48:30;25.03;;;23.33;;
16393;SDS011;8306;51.128;4.476;2022-09-11T10:51:04;19.27;;;18.07;;
16393;SDS011;8306;51.128;4.476;2022-09-11T10:53:29;17.83;;;16.63;;
16393;SDS011;8306;51.128;4.476;2022-09-11T10:55:59;18.27;;;17.07;;
16393;SDS011;8306;51.128;4.476;2022-09-11T10:58:28;15.90;;;14.90;;
16393;SDS011;8306;51.128;4.476;2022-09-11T11:00:57;15.75;;;14.75;;
16393;SDS011;8306;51.128;4.476;2022-09-11T11:03:24;16.70;;;15.60;;
16393;SDS011;8306;51.128;4.476;2022-09-11T11:06:00;17.12;;;16.08;;
16393;SDS011;8306;51.128;4.476;2022-09-11T11:11:22;17.80;;;16.70;;
16393;SDS011;8306;51.128;4.476;2022-09-11T11:19:14;16.98;;;15.88;;
16393;SDS011;8306;51.128;4.476;2022-09-11T11:24:49;14.90;;;13.88;;
16393;SDS011;8306;51.128;4.476;2022-09-11T11:37:42;13.27;;;12.47;;
16393;SDS011;8306;51.128;4.476;2022-09-11T11:40:17;11.93;;;11.13;;
16393;SDS011;8306;51.128;4.476;2022-09-11T11:43:07;14.00;;;13.00;;
16393;SDS011;8306;51.128;4.476;2022-09-11T11:45:33;11.93;;;11.13;;
16393;SDS011;8306;51.128;4.476;2022-09-11T11:48:23;13.93;;;13.03;;
16393;SDS011;8306;51.128;4.476;2022-09-11T11:50:49;10.77;;;10.10;;
16393;SDS011;8306;51.128;4.476;2022-09-11T12:01:11;12.43;;;11.63;;
16393;SDS011;8306;51.128;4.476;2022-09-11T12:03:41;12.83;;;12.13;;
16393;SDS011;8306;51.128;4.476;2022-09-11T12:06:05;12.77;;;11.93;;
16393;SDS011;8306;51.128;4.476;2022-09-11T12:08:36;10.40;;;9.70;;
16393;SDS011;8306;51.128;4.476;2022-09-11T12:10:59;12.67;;;11.87;;
16393;SDS011;8306;51.128;4.476;2022-09-11T12:13:32;15.23;;;14.33;;
16393;SDS011;8306;51.128;4.476;2022-09-11T12:16:12;13.17;;;12.47;;
16393;SDS011;8306;51.128;4.476;2022-09-11T12:19:06;14.07;;;13.27;;
16393;SDS011;8306;51.128;4.476;2022-09-11T12:21:33;14.47;;;13.47;;
16393;SDS011;8306;51.128;4.476;2022-09-11T12:26:28;10.80;;;10.20;;
16393;SDS011;8306;51.128;4.476;2022-09-11T12:34:54;14.97;;;14.07;;
16393;SDS011;8306;51.128;4.476;2022-09-11T12:36:50;13.20;;;12.40;;
16393;SDS011;8306;51.128;4.476;2022-09-11T12:39:22;11.90;;;11.20;;
16393;SDS011;8306;51.128;4.476;2022-09-11T12:41:47;10.93;;;10.27;;
16393;SDS011;8306;51.128;4.476;2022-09-11T12:49:24;5.97;;;5.57;;
16393;SDS011;8306;51.128;4.476;2022-09-11T12:51:52;6.50;;;6.10;;
16393;SDS011;8306;51.128;4.476;2022-09-11T12:54:24;6.03;;;5.67;;
16393;SDS011;8306;51.128;4.476;2022-09-11T12:56:57;5.17;;;4.87;;
16393;SDS011;8306;51.128;4.476;2022-09-11T12:59:39;2.00;;;1.77;;
16393;SDS011;8306;51.128;4.476;2022-09-11T13:04:50;5.53;;;5.07;;
16393;SDS011;8306;51.128;4.476;2022-09-11T13:12:58;2.87;;;2.67;;
16393;SDS011;8306;51.128;4.476;2022-09-11T13:15:42;3.57;;;3.30;;
16393;SDS011;8306;51.128;4.476;2022-09-11T13:18:27;3.03;;;2.83;;
16393;SDS011;8306;51.128;4.476;2022-09-11T13:20:57;3.00;;;2.80;;
16393;SDS011;8306;51.128;4.476;2022-09-11T13:23:23;3.10;;;2.90;;
16393;SDS011;8306;51.128;4.476;2022-09-11T13:25:49;2.80;;;2.40;;
16393;SDS011;8306;51.128;4.476;2022-09-11T13:28:16;2.00;;;1.90;;
16393;SDS011;8306;51.128;4.476;2022-09-11T13:30:53;2.83;;;2.50;;
16393;SDS011;8306;51.128;4.476;2022-09-11T13:33:20;2.60;;;2.40;;
16393;SDS011;8306;51.128;4.476;2022-09-11T13:35:44;2.70;;;2.50;;
16393;SDS011;8306;51.128;4.476;2022-09-11T13:38:17;2.30;;;2.10;;
16393;SDS011;8306;51.128;4.476;2022-09-11T13:40:47;3.00;;;2.80;;
16393;SDS011;8306;51.128;4.476;2022-09-11T13:43:19;3.10;;;2.90;;
16393;SDS011;8306;51.128;4.476;2022-09-11T13:45:45;3.40;;;3.17;;
16393;SDS011;8306;51.128;4.476;2022-09-11T13:48:21;3.10;;;2.90;;
16393;SDS011;8306;51.128;4.476;2022-09-11T13:50:50;3.10;;;2.90;;
16393;SDS011;8306;51.128;4.476;2022-09-11T13:53:16;2.90;;;2.70;;
16393;SDS011;8306;51.128;4.476;2022-09-11T13:55:46;3.50;;;3.30;;
16393;SDS011;8306;51.128;4.476;2022-09-11T13:58:19;3.97;;;3.23;;
16393;SDS011;8306;51.128;4.476;2022-09-11T14:00:44;3.00;;;2.80;;
16393;SDS011;8306;51.128;4.476;2022-09-11T14:03:15;2.60;;;2.50;;
16393;SDS011;8306;51.128;4.476;2022-09-11T14:05:46;2.80;;;2.60;;
16393;SDS011;8306;51.128;4.476;2022-09-11T14:11:08;2.77;;;2.57;;
16393;SDS011;8306;51.128;4.476;2022-09-11T14:16:25;3.53;;;3.10;;
16393;SDS011;8306;51.128;4.476;2022-09-11T14:22:02;3.03;;;2.83;;
16393;SDS011;8306;51.128;4.476;2022-09-11T14:23:57;3.20;;;3.00;;
16393;SDS011;8306;51.128;4.476;2022-09-11T14:26:38;3.20;;;3.00;;
16393;SDS011;8306;51.128;4.476;2022-09-11T14:31:30;2.87;;;2.67;;
16393;SDS011;8306;51.128;4.476;2022-09-11T14:34:02;3.10;;;2.80;;
16393;SDS011;8306;51.128;4.476;2022-09-11T14:36:27;3.10;;;2.80;;
16393;SDS011;8306;51.128;4.476;2022-09-11T14:38:54;2.43;;;2.33;;
16393;SDS011;8306;51.128;4.476;2022-09-11T14:41:20;3.00;;;2.80;;
16393;SDS011;8306;51.128;4.476;2022-09-11T14:43:47;3.73;;;3.20;;
16393;SDS011;8306;51.128;4.476;2022-09-11T14:46:13;3.10;;;2.90;;
16393;SDS011;8306;51.128;4.476;2022-09-11T14:48:40;3.03;;;2.83;;
16393;SDS011;8306;51.128;4.476;2022-09-11T14:51:06;2.70;;;2.60;;
16393;SDS011;8306;51.128;4.476;2022-09-11T14:53:33;2.70;;;2.50;;
16393;SDS011;8306;51.128;4.476;2022-09-11T14:56:00;2.80;;;2.60;;
16393;SDS011;8306;51.128;4.476;2022-09-11T14:58:26;2.73;;;2.53;;
16393;SDS011;8306;51.128;4.476;2022-09-11T15:00:52;2.70;;;2.30;;
16393;SDS011;8306;51.128;4.476;2022-09-11T15:03:19;2.50;;;2.30;;
16393;SDS011;8306;51.128;4.476;2022-09-11T15:05:46;2.73;;;2.53;;
16393;SDS011;8306;51.128;4.476;2022-09-11T15:08:12;2.43;;;2.20;;
16393;SDS011;8306;51.128;4.476;2022-09-11T15:10:38;2.00;;;1.90;;
16393;SDS011;8306;51.128;4.476;2022-09-11T15:13:05;2.00;;;1.90;;
16393;SDS011;8306;51.128;4.476;2022-09-11T15:15:31;1.90;;;1.80;;
16393;SDS011;8306;51.128;4.476;2022-09-11T15:17:57;2.13;;;1.67;;
16393;SDS011;8306;51.128;4.476;2022-09-11T15:20:24;1.80;;;1.70;;
16393;SDS011;8306;51.128;4.476;2022-09-11T15:22:50;2.00;;;1.90;;
16393;SDS011;8306;51.128;4.476;2022-09-11T15:25:17;2.23;;;2.07;;
16393;SDS011;8306;51.128;4.476;2022-09-11T15:27:43;2.70;;;2.17;;
16393;SDS011;8306;51.128;4.476;2022-09-11T15:30:10;2.23;;;2.03;;
16393;SDS011;8306;51.128;4.476;2022-09-11T15:32:37;2.10;;;1.90;;
16393;SDS011;8306;51.128;4.476;2022-09-11T15:35:03;2.33;;;2.20;;
16393;SDS011;8306;51.128;4.476;2022-09-11T15:37:29;2.30;;;2.10;;
16393;SDS011;8306;51.128;4.476;2022-09-11T15:39:56;2.40;;;2.20;;
16393;SDS011;8306;51.128;4.476;2022-09-11T15:42:22;2.00;;;1.90;;
16393;SDS011;8306;51.128;4.476;2022-09-11T15:44:49;2.30;;;2.10;;
16393;SDS011;8306;51.128;4.476;2022-09-11T15:47:15;1.93;;;1.83;;
16393;SDS011;8306;51.128;4.476;2022-09-11T15:49:42;4.97;;;1.97;;
16393;SDS011;8306;51.128;4.476;2022-09-11T15:52:14;1.70;;;1.60;;
16393;SDS011;8306;51.128;4.476;2022-09-11T15:54:41;1.80;;;1.50;;
16393;SDS011;8306;51.128;4.476;2022-09-11T15:57:07;1.80;;;1.50;;
16393;SDS011;8306;51.128;4.476;2022-09-11T15:59:34;1.47;;;1.30;;
16393;SDS011;8306;51.128;4.476;2022-09-11T16:02:00;1.77;;;1.40;;
16393;SDS011;8306;51.128;4.476;2022-09-11T16:04:27;1.20;;;1.20;;
16393;SDS011;8306;51.128;4.476;2022-09-11T16:06:53;1.50;;;1.40;;
16393;SDS011;8306;51.128;4.476;2022-09-11T16:09:21;1.73;;;1.63;;
16393;SDS011;8306;51.128;4.476;2022-09-11T16:11:46;1.30;;;1.20;;
16393;SDS011;8306;51.128;4.476;2022-09-11T16:14:23;1.50;;;1.40;;
16393;SDS011;8306;51.128;4.476;2022-09-11T16:16:39;1.87;;;1.77;;
16393;SDS011;8306;51.128;4.476;2022-09-11T16:19:06;1.40;;;1.30;;
16393;SDS011;8306;51.128;4.476;2022-09-11T16:21:32;1.17;;;1.07;;
16393;SDS011;8306;51.128;4.476;2022-09-11T16:23:58;1.43;;;1.00;;
16393;SDS011;8306;51.128;4.476;2022-09-11T16:26:25;1.40;;;0.90;;
16393;SDS011;8306;51.128;4.476;2022-09-11T16:28:52;1.30;;;1.20;;
16393;SDS011;8306;51.128;4.476;2022-09-11T16:31:18;1.60;;;1.50;;